Gennaro Ievoli — 9HA3007 — position and weather

sailwx.info

Track history (hours):
 
Tides and Currents Weather Stations Pressure Air Temp Water Temp Dewpoint Dewpoint Depression Visibility Wind Speed Wind Dir Waves Ship Positions

Gennaro Ievoli

Last reported at 2014-Nov-18 15:12 UTC. Time now 2014-Nov-28 15:36 UTC.
Position N 35°58' W 005°36'.
Warning: this ship's position is 10 days out of date.

Length 171 m; draft 7.2 m.

Type: Tanker. MMSI: 229031000.

Date/timePositionNaut miles runAvg speedWind from/ knotsBaromVisibWave heightAir tempDewpointWater temp
2014-Nov-18 15:12N 35°58' W 005°36'810.6
2014-Nov-18 14:29N 35°60' W 005°27'1111.9
2014-Nov-18 13:33N 36°03' W 005°14'21212.4
2014-Nov-17 20:26N 37°05' W 001°02'1213.2
2014-Nov-17 19:31N 37°13' W 000°50'1313.1
2014-Nov-17 18:31N 37°20' W 000°37'1313.2
2014-Nov-17 17:33N 37°28' W 000°24'1313.0
2014-Nov-17 16:34N 37°38' W 000°14'14513.1
2014-Nov-17 05:29N 39°47' E 001°12'1213.5
2014-Nov-17 04:33N 39°59' E 001°17'1413.9
2014-Nov-17 03:33N 40°12' E 001°22'1414.3
2014-Nov-17 02:33N 40°25' E 001°28'1414.2
2014-Nov-17 01:33N 40°40' E 001°31'  
2014-Nov-14 21:32N 41°08' E 001°49'1513.6
2014-Nov-14 20:25N 41°13' E 002°07'7 3.3
2014-Nov-14 18:19N 41°20' E 002°09'0 0.0
2014-Nov-14 16:30N 41°20' E 002°09'0 0.0
2014-Nov-13 20:22N 41°20' E 002°09'0 0.0
2014-Nov-13 19:09N 41°20' E 002°09'0 0.0
2014-Nov-13 18:27N 41°20' E 002°09'55 2.6
2014-Nov-12 21:33N 41°38' E 003°18'3313.4
2014-Nov-12 19:07N 41°54' E 003°56'1312.4
2014-Nov-12 18:04N 41°59' E 004°13'1012.5
2014-Nov-12 17:16N 42°03' E 004°25'912.2
2014-Nov-12 16:33N 42°06' E 004°36'1412.2
2014-Nov-12 15:22N 42°11' E 004°54'1011.9
2014-Nov-12 14:31N 42°15' E 005°07'3112.7
2014-Nov-12 12:06N 42°29' E 005°44'712.6
2014-Nov-12 11:33N 42°31' E 005°52'1312.5
2014-Nov-12 10:33N 42°36' E 006°08'1613.2
2014-Nov-12 09:19N 42°43' E 006°28'2413.5
2014-Nov-12 07:33N 42°58' E 006°54'1414.1
2014-Nov-12 06:33N 43°07' E 007°09'6913.6
2014-Nov-12 01:27N 43°49' E 008°25'1112.8
2014-Nov-12 00:33N 43°58' E 008°34'1313.0
2014-Nov-11 23:34N 44°08' E 008°45'1312.9
2014-Nov-11 22:33N 44°19' E 008°56'5 5.1
2014-Nov-11 21:28N 44°24' E 008°55'0 0.0
2014-Nov-11 20:28N 44°24' E 008°55'0 0.0
2014-Nov-11 19:28N 44°24' E 008°55'0 0.0
2014-Nov-11 18:32N 44°24' E 008°55'0 0.0
2014-Nov-11 17:31N 44°24' E 008°55'0 0.0
2014-Nov-11 16:28N 44°24' E 008°55'0 0.0
2014-Nov-11 15:27N 44°24' E 008°55'0 0.0
2014-Nov-11 14:33N 44°24' E 008°55'0 0.0
2014-Nov-11 13:12N 44°24' E 008°55'0 0.0
2014-Nov-11 12:32N 44°24' E 008°55'0 0.0
2014-Nov-11 11:29N 44°24' E 008°55'0 0.0
2014-Nov-11 10:31N 44°24' E 008°55'0 0.0
2014-Nov-11 09:31N 44°24' E 008°55'0 0.0
2014-Nov-11 08:18N 44°24' E 008°55'0 0.0
2014-Nov-11 07:33N 44°24' E 008°55'0 0.0
2014-Nov-11 06:15N 44°24' E 008°55'0 0.0
2014-Nov-11 05:29N 44°24' E 008°55'0 0.0
2014-Nov-11 04:29N 44°24' E 008°55'0 0.0
2014-Nov-11 03:28N 44°24' E 008°55'0 0.0
2014-Nov-11 02:28N 44°24' E 008°55'0 0.0
2014-Nov-11 01:27N 44°24' E 008°55'0 0.0
2014-Nov-11 00:27N 44°24' E 008°55'0 0.0
2014-Nov-10 23:33N 44°24' E 008°55'0 0.0
2014-Nov-10 22:32N 44°24' E 008°55'0 0.0
2014-Nov-10 21:32N 44°24' E 008°55'0 0.0
2014-Nov-10 20:31N 44°24' E 008°55'0 0.0
2014-Nov-10 19:33N 44°24' E 008°55'2 1.9
2014-Nov-10 18:33N 44°23' E 008°57'1211.6
2014-Nov-10 17:33N 44°12' E 009°03'1313.3
2014-Nov-10 16:33N 43°60' E 009°10'1312.9
2014-Nov-10 15:33N 43°48' E 009°16'1313.2
2014-Nov-10 14:33N 43°35' E 009°22'1313.4
2014-Nov-10 13:33N 43°23' E 009°29'1413.4
2014-Nov-10 12:31N 43°09' E 009°34'41312.7
2014-Nov-09 04:06N 37°01' E 013°38'712.8
2014-Nov-09 03:33N 36°58' E 013°45'1312.9
2014-Nov-09 02:34N 36°52' E 013°60'  
Track history (hours):
 
Tides and Currents Weather Stations Pressure Air Temp Water Temp Dewpoint Dewpoint Depression Visibility Wind Speed Wind Dir Waves Ship Positions

Gennaro Ievoli

Last reported at 2014-Nov-18 15:12 UTC. Time now 2014-Nov-28 15:36 UTC.
Position N 35°58' W 005°36'.
Warning: this ship's position is 10 days out of date.

Length 171 m; draft 7.2 m.

Type: Tanker. MMSI: 229031000.

Date/timePositionNaut miles runAvg speedWind from/ knotsBaromVisibWave heightAir tempDewpointWater temp
2014-Nov-18 15:12N 35°58' W 005°36'810.6
2014-Nov-18 14:29N 35°60' W 005°27'1111.9
2014-Nov-18 13:33N 36°03' W 005°14'21212.4
2014-Nov-17 20:26N 37°05' W 001°02'1213.2
2014-Nov-17 19:31N 37°13' W 000°50'1313.1
2014-Nov-17 18:31N 37°20' W 000°37'1313.2
2014-Nov-17 17:33N 37°28' W 000°24'1313.0
2014-Nov-17 16:34N 37°38' W 000°14'14513.1
2014-Nov-17 05:29N 39°47' E 001°12'1213.5
2014-Nov-17 04:33N 39°59' E 001°17'1413.9
2014-Nov-17 03:33N 40°12' E 001°22'1414.3
2014-Nov-17 02:33N 40°25' E 001°28'1414.2
2014-Nov-17 01:33N 40°40' E 001°31'  
2014-Nov-14 21:32N 41°08' E 001°49'1513.6
2014-Nov-14 20:25N 41°13' E 002°07'7 3.3
2014-Nov-14 18:19N 41°20' E 002°09'0 0.0
2014-Nov-14 16:30N 41°20' E 002°09'0 0.0
2014-Nov-13 20:22N 41°20' E 002°09'0 0.0
2014-Nov-13 19:09N 41°20' E 002°09'0 0.0
2014-Nov-13 18:27N 41°20' E 002°09'55 2.6
2014-Nov-12 21:33N 41°38' E 003°18'3313.4
2014-Nov-12 19:07N 41°54' E 003°56'1312.4
2014-Nov-12 18:04N 41°59' E 004°13'1012.5
2014-Nov-12 17:16N 42°03' E 004°25'912.2
2014-Nov-12 16:33N 42°06' E 004°36'1412.2
2014-Nov-12 15:22N 42°11' E 004°54'1011.9
2014-Nov-12 14:31N 42°15' E 005°07'3112.7
2014-Nov-12 12:06N 42°29' E 005°44'712.6
2014-Nov-12 11:33N 42°31' E 005°52'1312.5
2014-Nov-12 10:33N 42°36' E 006°08'1613.2
2014-Nov-12 09:19N 42°43' E 006°28'2413.5
2014-Nov-12 07:33N 42°58' E 006°54'1414.1
2014-Nov-12 06:33N 43°07' E 007°09'6913.6
2014-Nov-12 01:27N 43°49' E 008°25'1112.8
2014-Nov-12 00:33N 43°58' E 008°34'1313.0
2014-Nov-11 23:34N 44°08' E 008°45'1312.9
2014-Nov-11 22:33N 44°19' E 008°56'5 5.1
2014-Nov-11 21:28N 44°24' E 008°55'0 0.0
2014-Nov-11 20:28N 44°24' E 008°55'0 0.0
2014-Nov-11 19:28N 44°24' E 008°55'0 0.0
2014-Nov-11 18:32N 44°24' E 008°55'0 0.0
2014-Nov-11 17:31N 44°24' E 008°55'0 0.0
2014-Nov-11 16:28N 44°24' E 008°55'0 0.0
2014-Nov-11 15:27N 44°24' E 008°55'0 0.0
2014-Nov-11 14:33N 44°24' E 008°55'0 0.0
2014-Nov-11 13:12N 44°24' E 008°55'0 0.0
2014-Nov-11 12:32N 44°24' E 008°55'0 0.0
2014-Nov-11 11:29N 44°24' E 008°55'0 0.0
2014-Nov-11 10:31N 44°24' E 008°55'0 0.0
2014-Nov-11 09:31N 44°24' E 008°55'0 0.0
2014-Nov-11 08:18N 44°24' E 008°55'0 0.0
2014-Nov-11 07:33N 44°24' E 008°55'0 0.0
2014-Nov-11 06:15N 44°24' E 008°55'0 0.0
2014-Nov-11 05:29N 44°24' E 008°55'0 0.0
2014-Nov-11 04:29N 44°24' E 008°55'0 0.0
2014-Nov-11 03:28N 44°24' E 008°55'0 0.0
2014-Nov-11 02:28N 44°24' E 008°55'0 0.0
2014-Nov-11 01:27N 44°24' E 008°55'0 0.0
2014-Nov-11 00:27N 44°24' E 008°55'0 0.0
2014-Nov-10 23:33N 44°24' E 008°55'0 0.0
2014-Nov-10 22:32N 44°24' E 008°55'0 0.0
2014-Nov-10 21:32N 44°24' E 008°55'0 0.0
2014-Nov-10 20:31N 44°24' E 008°55'0 0.0
2014-Nov-10 19:33N 44°24' E 008°55'2 1.9
2014-Nov-10 18:33N 44°23' E 008°57'1211.6
2014-Nov-10 17:33N 44°12' E 009°03'1313.3
2014-Nov-10 16:33N 43°60' E 009°10'1312.9
2014-Nov-10 15:33N 43°48' E 009°16'1313.2
2014-Nov-10 14:33N 43°35' E 009°22'1313.4
2014-Nov-10 13:33N 43°23' E 009°29'1413.4
2014-Nov-10 12:31N 43°09' E 009°34'41312.7
2014-Nov-09 04:06N 37°01' E 013°38'712.8
2014-Nov-09 03:33N 36°58' E 013°45'1312.9
2014-Nov-09 02:34N 36°52' E 013°60'  

Dump ship's entire track history